^^
TXWeather Station Historical Data
Daily Summary for January 26, 2022 Units:  English    Metric   Both
Daily Weekly Monthly Yearly Custom
  High: Low: Average:
Temperature: 58.0 °F 38.0 °F 47.3 °F
Dew Point: 44.0 °F 32.0 °F 37.8 °F
Humidity: 88% 53% 71%
Wind Speed: 13mph 0mph 5mph
Wind Gust: 14mph - -
Wind- - NE
Pressure: 30.4 in 30.3 in -
Precipitation: 0.000 in    
Historical Graphs
 
 
Tabular Data for January 26, 2022
Time Temperature Dew Point Pressure Wind Wind Speed Wind Gust Humidity Rainfall Rate (Hourly) solar
00:04 48.0 °F 43.0 °F 30.3 in NE 2 mph 2 mph 85% 0.000 in 0.00 W/m2
00:09 48.0 °F 44.0 °F 30.3 in ENE 3 mph 3 mph 86% 0.000 in 0.00 W/m2
00:14 47.0 °F 43.0 °F 30.3 in ENE 3 mph 3 mph 86% 0.000 in 0.00 W/m2
00:19 47.0 °F 43.0 °F 30.3 in NE 5 mph 5 mph 86% 0.000 in 0.00 W/m2
00:24 47.0 °F 43.0 °F 30.3 in NNE 4 mph 4 mph 86% 0.000 in 0.00 W/m2
00:29 47.0 °F 43.0 °F 30.3 in NE 3 mph 4 mph 86% 0.000 in 0.00 W/m2
00:34 47.0 °F 43.0 °F 30.3 in NE 5 mph 5 mph 86% 0.000 in 0.00 W/m2
00:39 47.0 °F 43.0 °F 30.3 in NE 4 mph 5 mph 86% 0.000 in 0.00 W/m2
00:44 47.0 °F 43.0 °F 30.3 in NE 4 mph 5 mph 86% 0.000 in 0.00 W/m2
00:49 47.0 °F 43.0 °F 30.3 in NE 5 mph 5 mph 87% 0.000 in 0.00 W/m2
00:54 47.0 °F 43.0 °F 30.3 in NE 5 mph 6 mph 87% 0.000 in 0.00 W/m2
00:59 47.0 °F 43.0 °F 30.3 in NE 3 mph 3 mph 87% 0.000 in 0.00 W/m2
01:04 47.0 °F 43.0 °F 30.3 in NNE 5 mph 5 mph 87% 0.000 in 0.00 W/m2
01:09 47.0 °F 43.0 °F 30.3 in NE 3 mph 3 mph 87% 0.000 in 0.00 W/m2
01:14 47.0 °F 43.0 °F 30.3 in North 4 mph 4 mph 87% 0.000 in 0.00 W/m2
01:19 47.0 °F 43.0 °F 30.3 in NNE 8 mph 8 mph 87% 0.000 in 0.00 W/m2
01:24 47.0 °F 43.0 °F 30.3 in NNE 6 mph 8 mph 87% 0.000 in 0.00 W/m2
01:29 47.0 °F 43.0 °F 30.3 in NE 5 mph 5 mph 87% 0.000 in 0.00 W/m2
01:34 46.0 °F 43.0 °F 30.3 in NE 3 mph 5 mph 87% 0.000 in 0.00 W/m2
01:39 46.0 °F 43.0 °F 30.3 in NE 3 mph 3 mph 87% 0.000 in 0.00 W/m2
01:44 46.0 °F 43.0 °F 30.3 in NE 2 mph 3 mph 87% 0.000 in 0.00 W/m2
01:49 46.0 °F 42.0 °F 30.3 in NE 3 mph 3 mph 87% 0.000 in 0.00 W/m2
01:54 46.0 °F 42.0 °F 30.3 in NE 3 mph 3 mph 87% 0.000 in 0.00 W/m2
01:59 46.0 °F 42.0 °F 30.3 in ENE 3 mph 4 mph 87% 0.000 in 0.00 W/m2
02:04 46.0 °F 42.0 °F 30.3 in NE 3 mph 3 mph 87% 0.000 in 0.00 W/m2
02:09 46.0 °F 42.0 °F 30.3 in NE 5 mph 5 mph 87% 0.000 in 0.00 W/m2
02:14 46.0 °F 42.0 °F 30.3 in NE 5 mph 6 mph 87% 0.000 in 0.00 W/m2
02:19 45.0 °F 42.0 °F 30.3 in NE 5 mph 6 mph 87% 0.000 in 0.00 W/m2
02:24 45.0 °F 42.0 °F 30.3 in NE 4 mph 6 mph 87% 0.000 in 0.00 W/m2
02:29 45.0 °F 42.0 °F 30.3 in NE 4 mph 5 mph 87% 0.000 in 0.00 W/m2
02:34 45.0 °F 41.0 °F 30.3 in NNE 3 mph 4 mph 87% 0.000 in 0.00 W/m2
02:39 45.0 °F 41.0 °F 30.3 in NE 4 mph 5 mph 87% 0.000 in 0.00 W/m2
02:44 45.0 °F 41.0 °F 30.3 in NE 5 mph 5 mph 87% 0.000 in 0.00 W/m2
02:49 45.0 °F 41.0 °F 30.3 in NE 3 mph 4 mph 87% 0.000 in 0.00 W/m2
02:54 44.0 °F 41.0 °F 30.3 in NE 3 mph 4 mph 87% 0.000 in 0.00 W/m2
02:59 44.0 °F 41.0 °F 30.3 in NE 3 mph 4 mph 87% 0.000 in 0.00 W/m2
03:04 44.0 °F 41.0 °F 30.3 in NE 3 mph 4 mph 87% 0.000 in 0.00 W/m2
03:09 44.0 °F 41.0 °F 30.3 in NE 3 mph 3 mph 87% 0.000 in 0.00 W/m2
03:14 44.0 °F 41.0 °F 30.3 in NE 4 mph 4 mph 88% 0.000 in 0.00 W/m2
03:19 44.0 °F 41.0 °F 30.3 in NNE 4 mph 4 mph 88% 0.000 in 0.00 W/m2
03:24 44.0 °F 41.0 °F 30.3 in NNE 4 mph 4 mph 88% 0.000 in 0.00 W/m2
03:29 44.0 °F 41.0 °F 30.3 in NNE 7 mph 7 mph 88% 0.000 in 0.00 W/m2
03:34 44.0 °F 41.0 °F 30.3 in NNE 7 mph 9 mph 88% 0.000 in 0.00 W/m2
03:39 44.0 °F 41.0 °F 30.3 in NE 10 mph 11 mph 88% 0.000 in 0.00 W/m2
03:44 44.0 °F 41.0 °F 30.3 in NE 6 mph 8 mph 88% 0.000 in 0.00 W/m2
03:49 44.0 °F 40.0 °F 30.3 in NE 9 mph 10 mph 87% 0.000 in 0.00 W/m2
03:54 43.0 °F 40.0 °F 30.3 in NE 8 mph 9 mph 87% 0.000 in 0.00 W/m2
03:59 43.0 °F 40.0 °F 30.3 in NNE 7 mph 8 mph 87% 0.000 in 0.00 W/m2
04:04 43.0 °F 39.0 °F 30.3 in NE 8 mph 8 mph 87% 0.000 in 0.00 W/m2
04:09 43.0 °F 39.0 °F 30.3 in NNE 9 mph 10 mph 87% 0.000 in 0.00 W/m2
04:14 42.0 °F 39.0 °F 30.3 in NE 6 mph 10 mph 86% 0.000 in 0.00 W/m2
04:19 42.0 °F 39.0 °F 30.3 in NE 5 mph 6 mph 86% 0.000 in 0.00 W/m2
04:24 42.0 °F 39.0 °F 30.3 in NNE 6 mph 6 mph 86% 0.000 in 0.00 W/m2
04:29 42.0 °F 38.0 °F 30.3 in NE 5 mph 6 mph 86% 0.000 in 0.00 W/m2
04:34 42.0 °F 38.0 °F 30.3 in NE 3 mph 3 mph 86% 0.000 in 0.00 W/m2
04:39 42.0 °F 38.0 °F 30.3 in NE 5 mph 7 mph 86% 0.000 in 0.00 W/m2
04:44 42.0 °F 38.0 °F 30.3 in NNE 7 mph 8 mph 85% 0.000 in 0.00 W/m2
04:49 42.0 °F 38.0 °F 30.3 in NNE 5 mph 8 mph 85% 0.000 in 0.00 W/m2
04:54 42.0 °F 38.0 °F 30.3 in NNE 7 mph 7 mph 85% 0.000 in 0.00 W/m2
04:59 42.0 °F 37.0 °F 30.3 in NNE 5 mph 7 mph 85% 0.000 in 0.00 W/m2
05:04 42.0 °F 37.0 °F 30.3 in NNE 6 mph 9 mph 85% 0.000 in 0.00 W/m2
05:09 41.0 °F 37.0 °F 30.3 in NNE 10 mph 10 mph 85% 0.000 in 0.00 W/m2
05:14 41.0 °F 37.0 °F 30.3 in NNE 8 mph 10 mph 85% 0.000 in 0.00 W/m2
05:19 41.0 °F 37.0 °F 30.3 in NNE 7 mph 10 mph 85% 0.000 in 0.00 W/m2
05:24 41.0 °F 37.0 °F 30.3 in NNE 10 mph 10 mph 85% 0.000 in 0.00 W/m2
05:29 41.0 °F 37.0 °F 30.3 in NNE 7 mph 10 mph 85% 0.000 in 0.00 W/m2
05:34 41.0 °F 37.0 °F 30.3 in NNE 12 mph 14 mph 85% 0.000 in 0.00 W/m2
05:39 41.0 °F 36.0 °F 30.3 in NE 9 mph 9 mph 84% 0.000 in 0.00 W/m2
05:44 40.0 °F 36.0 °F 30.3 in NE 12 mph 12 mph 84% 0.000 in 0.00 W/m2
05:49 40.0 °F 36.0 °F 30.3 in NNE 8 mph 12 mph 84% 0.000 in 0.00 W/m2
05:54 40.0 °F 36.0 °F 30.3 in NNE 9 mph 10 mph 84% 0.000 in 0.00 W/m2
05:59 40.0 °F 35.0 °F 30.3 in NNE 5 mph 9 mph 83% 0.000 in 0.00 W/m2
06:04 40.0 °F 35.0 °F 30.3 in NNE 8 mph 10 mph 83% 0.000 in 0.00 W/m2
06:09 40.0 °F 35.0 °F 30.3 in NE 8 mph 10 mph 83% 0.000 in 0.00 W/m2
06:14 40.0 °F 35.0 °F 30.3 in NE 7 mph 9 mph 83% 0.000 in 0.00 W/m2
06:19 40.0 °F 35.0 °F 30.3 in NE 7 mph 10 mph 82% 0.000 in 0.00 W/m2
06:24 39.0 °F 34.0 °F 30.3 in NNE 10 mph 10 mph 82% 0.000 in 0.00 W/m2
06:29 39.0 °F 34.0 °F 30.3 in NNE 8 mph 10 mph 82% 0.000 in 0.00 W/m2
06:34 39.0 °F 34.0 °F 30.3 in NNE 10 mph 10 mph 81% 0.000 in 0.00 W/m2
06:39 39.0 °F 34.0 °F 30.3 in NNE 9 mph 9 mph 81% 0.000 in 0.00 W/m2
06:44 39.0 °F 34.0 °F 30.4 in NE 6 mph 9 mph 81% 0.000 in 0.00 W/m2
06:49 39.0 °F 33.0 °F 30.4 in NE 6 mph 8 mph 81% 0.000 in 0.00 W/m2
06:54 39.0 °F 33.0 °F 30.4 in NE 9 mph 9 mph 81% 0.000 in 0.00 W/m2
06:59 39.0 °F 33.0 °F 30.4 in NNE 10 mph 10 mph 81% 0.000 in 0.00 W/m2
07:04 39.0 °F 33.0 °F 30.4 in NNE 9 mph 10 mph 81% 0.000 in 0.00 W/m2
07:09 39.0 °F 33.0 °F 30.4 in NNE 6 mph 9 mph 81% 0.000 in 0.00 W/m2
07:14 39.0 °F 33.0 °F 30.4 in NNE 6 mph 6 mph 81% 0.000 in 0.00 W/m2
07:19 38.0 °F 33.0 °F 30.4 in NNE 6 mph 9 mph 81% 0.000 in 5.00 W/m2
07:24 38.0 °F 33.0 °F 30.4 in NNE 8 mph 10 mph 80% 0.000 in 7.00 W/m2
07:29 38.0 °F 32.0 °F 30.4 in NNE 8 mph 10 mph 80% 0.000 in 9.00 W/m2
07:34 38.0 °F 32.0 °F 30.4 in NNE 9 mph 10 mph 80% 0.000 in 12.00 W/m2
07:39 38.0 °F 32.0 °F 30.4 in NNE 9 mph 10 mph 80% 0.000 in 14.00 W/m2
07:44 38.0 °F 32.0 °F 30.4 in NNE 7 mph 10 mph 79% 0.000 in 19.00 W/m2
07:49 38.0 °F 32.0 °F 30.4 in NE 10 mph 10 mph 79% 0.000 in 19.00 W/m2
07:54 38.0 °F 32.0 °F 30.4 in NE 10 mph 10 mph 79% 0.000 in 21.00 W/m2
07:59 38.0 °F 32.0 °F 30.4 in NE 6 mph 7 mph 78% 0.000 in 25.00 W/m2
08:04 38.0 °F 32.0 °F 30.4 in NNE 9 mph 10 mph 78% 0.000 in 25.00 W/m2
08:09 38.0 °F 32.0 °F 30.4 in NE 9 mph 10 mph 78% 0.000 in 77.00 W/m2
08:14 38.0 °F 32.0 °F 30.4 in NE 8 mph 11 mph 77% 0.000 in 120.00 W/m2
08:19 38.0 °F 32.0 °F 30.4 in NNE 4 mph 7 mph 77% 0.000 in 128.00 W/m2
08:24 39.0 °F 32.0 °F 30.4 in NE 10 mph 10 mph 77% 0.000 in 118.00 W/m2
08:29 39.0 °F 32.0 °F 30.4 in NNE 11 mph 12 mph 77% 0.000 in 114.00 W/m2
08:34 39.0 °F 32.0 °F 30.4 in NE 11 mph 12 mph 76% 0.000 in 179.00 W/m2
08:39 39.0 °F 32.0 °F 30.4 in NE 13 mph 13 mph 75% 0.000 in 179.00 W/m2
08:44 39.0 °F 32.0 °F 30.4 in NNE 12 mph 13 mph 75% 0.000 in 146.00 W/m2
08:49 39.0 °F 32.0 °F 30.4 in NE 7 mph 12 mph 74% 0.000 in 121.00 W/m2
08:54 40.0 °F 32.0 °F 30.4 in NNE 11 mph 11 mph 74% 0.000 in 113.00 W/m2
08:59 40.0 °F 32.0 °F 30.4 in NNE 10 mph 10 mph 74% 0.000 in 248.00 W/m2
09:04 40.0 °F 33.0 °F 30.4 in NE 5 mph 11 mph 74% 0.000 in 264.00 W/m2
09:09 40.0 °F 32.0 °F 30.4 in NNE 9 mph 10 mph 73% 0.000 in 330.00 W/m2
09:14 41.0 °F 32.0 °F 30.4 in NE 7 mph 8 mph 73% 0.000 in 338.00 W/m2
09:19 41.0 °F 32.0 °F 30.4 in NE 9 mph 9 mph 72% 0.000 in 334.00 W/m2
09:24 41.0 °F 32.0 °F 30.4 in NNE 8 mph 9 mph 71% 0.000 in 294.00 W/m2
09:29 41.0 °F 33.0 °F 30.4 in NNE 11 mph 13 mph 71% 0.000 in 295.00 W/m2
09:34 41.0 °F 32.0 °F 30.4 in NNE 10 mph 11 mph 70% 0.000 in 374.00 W/m2
09:39 42.0 °F 33.0 °F 30.4 in NNE 10 mph 11 mph 70% 0.000 in 404.00 W/m2
09:44 42.0 °F 33.0 °F 30.4 in ENE 8 mph 11 mph 70% 0.000 in 434.00 W/m2
09:49 42.0 °F 33.0 °F 30.4 in ENE 6 mph 10 mph 69% 0.000 in 348.00 W/m2
09:54 42.0 °F 33.0 °F 30.4 in NE 7 mph 10 mph 69% 0.000 in 408.00 W/m2
09:59 43.0 °F 33.0 °F 30.4 in NNE 9 mph 10 mph 68% 0.000 in 482.00 W/m2
10:04 43.0 °F 33.0 °F 30.4 in ENE 7 mph 7 mph 68% 0.000 in 497.00 W/m2
10:09 44.0 °F 33.0 °F 30.4 in NNE 7 mph 7 mph 67% 0.000 in 508.00 W/m2
10:14 44.0 °F 33.0 °F 30.4 in ENE 8 mph 8 mph 67% 0.000 in 510.00 W/m2
10:19 45.0 °F 35.0 °F 30.4 in NNE 8 mph 8 mph 66% 0.000 in 522.00 W/m2
10:24 45.0 °F 34.0 °F 30.4 in NE 7 mph 9 mph 66% 0.000 in 522.00 W/m2
10:29 46.0 °F 34.0 °F 30.4 in East 7 mph 7 mph 63% 0.000 in 557.00 W/m2
10:34 46.0 °F 34.0 °F 30.4 in NNE 8 mph 9 mph 63% 0.000 in 580.00 W/m2
10:39 47.0 °F 35.0 °F 30.4 in North 7 mph 9 mph 63% 0.000 in 598.00 W/m2
10:44 47.0 °F 35.0 °F 30.4 in NNE 4 mph 7 mph 62% 0.000 in 642.00 W/m2
10:49 47.0 °F 34.0 °F 30.4 in NE 7 mph 8 mph 62% 0.000 in 643.00 W/m2
10:54 47.0 °F 35.0 °F 30.4 in North 9 mph 9 mph 62% 0.000 in 707.00 W/m2
10:59 47.0 °F 35.0 °F 30.4 in ENE 5 mph 9 mph 62% 0.000 in 694.00 W/m2
11:04 47.0 °F 34.0 °F 30.4 in NNE 7 mph 7 mph 60% 0.000 in 394.00 W/m2
11:09 48.0 °F 35.0 °F 30.4 in NNE 6 mph 6 mph 61% 0.000 in 687.00 W/m2
11:14 48.0 °F 35.0 °F 30.4 in NNE 8 mph 11 mph 60% 0.000 in 661.00 W/m2
11:19 48.0 °F 35.0 °F 30.4 in NE 5 mph 11 mph 60% 0.000 in 680.00 W/m2
11:24 48.0 °F 35.0 °F 30.4 in NNE 9 mph 9 mph 59% 0.000 in 689.00 W/m2
11:29 49.0 °F 35.0 °F 30.4 in NE 5 mph 9 mph 59% 0.000 in 689.00 W/m2
11:34 48.0 °F 34.0 °F 30.4 in NNE 5 mph 5 mph 58% 0.000 in 640.00 W/m2
11:39 48.0 °F 34.0 °F 30.4 in ENE 5 mph 8 mph 58% 0.000 in 612.00 W/m2
11:44 48.0 °F 35.0 °F 30.4 in NE 6 mph 6 mph 59% 0.000 in 513.00 W/m2
11:49 49.0 °F 35.0 °F 30.4 in NNE 3 mph 6 mph 58% 0.000 in 687.00 W/m2
11:54 50.0 °F 35.0 °F 30.4 in NE 5 mph 5 mph 58% 0.000 in 714.00 W/m2
11:59 50.0 °F 35.0 °F 30.4 in NNE 5 mph 6 mph 58% 0.000 in 712.00 W/m2
12:04 50.0 °F 35.0 °F 30.4 in NE 3 mph 4 mph 56% 0.000 in 710.00 W/m2
12:09 51.0 °F 36.0 °F 30.4 in North 9 mph 9 mph 58% 0.000 in 664.00 W/m2
12:14 51.0 °F 35.0 °F 30.4 in NNE 8 mph 9 mph 56% 0.000 in 643.00 W/m2
12:19 51.0 °F 36.0 °F 30.4 in NE 4 mph 8 mph 56% 0.000 in 773.00 W/m2
12:24 51.0 °F 36.0 °F 30.4 in NNE 7 mph 9 mph 56% 0.000 in 512.00 W/m2
12:29 51.0 °F 36.0 °F 30.4 in ENE 3 mph 9 mph 59% 0.000 in 411.00 W/m2
12:34 50.0 °F 37.0 °F 30.4 in NE 4 mph 4 mph 60% 0.000 in 696.00 W/m2
12:39 51.0 °F 38.0 °F 30.4 in ENE 4 mph 5 mph 60% 0.000 in 756.00 W/m2
12:44 53.0 °F 39.0 °F 30.4 in NNE 6 mph 6 mph 60% 0.000 in 867.00 W/m2
12:49 53.0 °F 39.0 °F 30.3 in NE 6 mph 8 mph 59% 0.000 in 875.00 W/m2
12:54 54.0 °F 39.0 °F 30.3 in NNE 4 mph 5 mph 57% 0.000 in 896.00 W/m2
12:59 54.0 °F 39.0 °F 30.3 in ESE 8 mph 8 mph 57% 0.000 in 879.00 W/m2
13:04 55.0 °F 40.0 °F 30.3 in NE 5 mph 5 mph 57% 0.000 in 826.00 W/m2
13:09 55.0 °F 39.0 °F 30.3 in ENE 5 mph 6 mph 55% 0.000 in 728.00 W/m2
13:14 54.0 °F 39.0 °F 30.3 in NE 6 mph 8 mph 57% 0.000 in 701.00 W/m2
13:19 54.0 °F 39.0 °F 30.3 in North 6 mph 6 mph 57% 0.000 in 724.00 W/m2
13:24 54.0 °F 39.0 °F 30.3 in North 5 mph 6 mph 57% 0.000 in 698.00 W/m2
13:29 54.0 °F 39.0 °F 30.3 in NE 7 mph 9 mph 56% 0.000 in 682.00 W/m2
13:34 54.0 °F 38.0 °F 30.3 in East 4 mph 9 mph 55% 0.000 in 598.00 W/m2
13:39 54.0 °F 39.0 °F 30.3 in NNE 6 mph 6 mph 56% 0.000 in 698.00 W/m2
13:44 55.0 °F 40.0 °F 30.3 in ENE 4 mph 6 mph 57% 0.000 in 707.00 W/m2
13:49 56.0 °F 40.0 °F 30.3 in ESE 3 mph 6 mph 55% 0.000 in 694.00 W/m2
13:54 56.0 °F 40.0 °F 30.3 in ENE 5 mph 5 mph 55% 0.000 in 670.00 W/m2
13:59 56.0 °F 40.0 °F 30.3 in North 5 mph 5 mph 55% 0.000 in 666.00 W/m2
14:04 56.0 °F 40.0 °F 30.3 in North 6 mph 6 mph 54% 0.000 in 652.00 W/m2
14:09 55.0 °F 39.0 °F 30.3 in NNW 6 mph 7 mph 54% 0.000 in 679.00 W/m2
14:14 56.0 °F 40.0 °F 30.3 in NNE 7 mph 7 mph 56% 0.000 in 675.00 W/m2
14:19 56.0 °F 40.0 °F 30.3 in ENE 4 mph 4 mph 54% 0.000 in 624.00 W/m2
14:24 56.0 °F 40.0 °F 30.3 in WNW 5 mph 8 mph 55% 0.000 in 619.00 W/m2
14:29 56.0 °F 40.0 °F 30.3 in NNE 9 mph 10 mph 55% 0.000 in 619.00 W/m2
14:34 57.0 °F 40.0 °F 30.3 in East 8 mph 8 mph 54% 0.000 in 585.00 W/m2
14:39 57.0 °F 40.0 °F 30.3 in East 7 mph 8 mph 54% 0.000 in 575.00 W/m2
14:44 56.0 °F 40.0 °F 30.3 in East 8 mph 8 mph 55% 0.000 in 563.00 W/m2
14:49 57.0 °F 41.0 °F 30.3 in NE 5 mph 5 mph 55% 0.000 in 555.00 W/m2
14:54 57.0 °F 41.0 °F 30.3 in NNE 5 mph 5 mph 55% 0.000 in 545.00 W/m2
14:59 57.0 °F 40.0 °F 30.3 in South 4 mph 4 mph 55% 0.000 in 531.00 W/m2
15:04 57.0 °F 40.0 °F 30.3 in ESE 4 mph 5 mph 55% 0.000 in 517.00 W/m2
15:09 57.0 °F 41.0 °F 30.3 in ESE 6 mph 6 mph 55% 0.000 in 501.00 W/m2
15:14 57.0 °F 41.0 °F 30.3 in ESE 4 mph 7 mph 55% 0.000 in 489.00 W/m2
15:19 57.0 °F 41.0 °F 30.3 in NE 5 mph 6 mph 55% 0.000 in 475.00 W/m2
15:24 57.0 °F 41.0 °F 30.3 in NE 5 mph 6 mph 54% 0.000 in 457.00 W/m2
15:29 57.0 °F 41.0 °F 30.3 in NE 9 mph 9 mph 54% 0.000 in 448.00 W/m2
15:34 57.0 °F 41.0 °F 30.3 in NNE 6 mph 9 mph 54% 0.000 in 436.00 W/m2
15:39 57.0 °F 41.0 °F 30.3 in NE 4 mph 5 mph 55% 0.000 in 415.00 W/m2
15:44 58.0 °F 41.0 °F 30.3 in NNE 5 mph 5 mph 54% 0.000 in 403.00 W/m2
15:49 58.0 °F 41.0 °F 30.3 in NNE 4 mph 4 mph 54% 0.000 in 383.00 W/m2
15:54 58.0 °F 41.0 °F 30.3 in NNE 4 mph 5 mph 53% 0.000 in 373.00 W/m2
15:59 58.0 °F 41.0 °F 30.3 in NE 6 mph 6 mph 53% 0.000 in 357.00 W/m2
16:04 57.0 °F 41.0 °F 30.3 in NE 6 mph 6 mph 53% 0.000 in 341.00 W/m2
16:09 57.0 °F 41.0 °F 30.3 in NNE 3 mph 4 mph 54% 0.000 in 325.00 W/m2
16:14 57.0 °F 41.0 °F 30.3 in NE 5 mph 5 mph 54% 0.000 in 306.00 W/m2
16:19 57.0 °F 41.0 °F 30.3 in ENE 4 mph 4 mph 54% 0.000 in 292.00 W/m2
16:24 57.0 °F 41.0 °F 30.3 in NNE 4 mph 4 mph 54% 0.000 in 272.00 W/m2
16:29 57.0 °F 41.0 °F 30.3 in NE 2 mph 3 mph 54% 0.000 in 255.00 W/m2
16:34 57.0 °F 41.0 °F 30.3 in NE 6 mph 6 mph 54% 0.000 in 135.00 W/m2
16:39 57.0 °F 41.0 °F 30.3 in North 4 mph 4 mph 54% 0.000 in 121.00 W/m2
16:44 57.0 °F 41.0 °F 30.3 in NE 3 mph 4 mph 54% 0.000 in 72.00 W/m2
16:49 57.0 °F 41.0 °F 30.3 in ENE 2 mph 3 mph 54% 0.000 in 58.00 W/m2
16:54 57.0 °F 41.0 °F 30.3 in East 2 mph 3 mph 55% 0.000 in 56.00 W/m2
16:59 57.0 °F 41.0 °F 30.3 in East 2 mph 3 mph 54% 0.000 in 35.00 W/m2
17:04 57.0 °F 41.0 °F 30.3 in SE 2 mph 2 mph 54% 0.000 in 72.00 W/m2
17:09 57.0 °F 41.0 °F 30.3 in SE 3 mph 3 mph 54% 0.000 in 67.00 W/m2
17:14 57.0 °F 41.0 °F 30.3 in East 3 mph 3 mph 55% 0.000 in 40.00 W/m2
17:19 57.0 °F 41.0 °F 30.3 in NE 2 mph 2 mph 55% 0.000 in 40.00 W/m2
17:24 56.0 °F 40.0 °F 30.3 in ENE 2 mph 2 mph 55% 0.000 in 30.00 W/m2
17:29 56.0 °F 41.0 °F 30.3 in ENE 2 mph 3 mph 56% 0.000 in 21.00 W/m2
17:34 56.0 °F 41.0 °F 30.3 in East 3 mph 3 mph 56% 0.000 in 18.00 W/m2
17:39 56.0 °F 40.0 °F 30.3 in ESE 2 mph 3 mph 56% 0.000 in 14.00 W/m2
17:44 56.0 °F 40.0 °F 30.3 in ESE 2 mph 2 mph 56% 0.000 in 11.00 W/m2
17:49 56.0 °F 40.0 °F 30.3 in East 1 mph 3 mph 57% 0.000 in 7.00 W/m2
17:54 55.0 °F 40.0 °F 30.3 in NE 2 mph 2 mph 58% 0.000 in 5.00 W/m2
17:59 55.0 °F 40.0 °F 30.3 in NE 2 mph 2 mph 58% 0.000 in 0.00 W/m2
18:04 55.0 °F 41.0 °F 30.3 in NE 2 mph 2 mph 59% 0.000 in 0.00 W/m2
18:09 54.0 °F 41.0 °F 30.3 in NE 2 mph 2 mph 60% 0.000 in 0.00 W/m2
18:14 54.0 °F 41.0 °F 30.3 in NE 1 mph 2 mph 61% 0.000 in 0.00 W/m2
18:19 54.0 °F 41.0 °F 30.3 in NE 2 mph 2 mph 61% 0.000 in 0.00 W/m2
18:24 53.0 °F 41.0 °F 30.3 in NE 2 mph 2 mph 62% 0.000 in 0.00 W/m2
18:29 53.0 °F 41.0 °F 30.3 in NE 2 mph 2 mph 63% 0.000 in 0.00 W/m2
18:34 53.0 °F 41.0 °F 30.3 in NE 2 mph 2 mph 63% 0.000 in 0.00 W/m2
18:39 53.0 °F 41.0 °F 30.3 in NE 2 mph 2 mph 64% 0.000 in 0.00 W/m2
18:44 52.0 °F 40.0 °F 30.3 in NE 2 mph 2 mph 64% 0.000 in 0.00 W/m2
18:49 52.0 °F 40.0 °F 30.3 in NE 2 mph 2 mph 65% 0.000 in 0.00 W/m2
18:54 52.0 °F 40.0 °F 30.3 in NE 2 mph 2 mph 65% 0.000 in 0.00 W/m2
18:59 51.0 °F 40.0 °F 30.3 in NE 2 mph 2 mph 66% 0.000 in 0.00 W/m2
19:04 51.0 °F 40.0 °F 30.3 in NE 1 mph 2 mph 67% 0.000 in 0.00 W/m2
19:09 51.0 °F 40.0 °F 30.3 in NE 2 mph 3 mph 67% 0.000 in 0.00 W/m2
19:14 50.0 °F 40.0 °F 30.3 in NE 1 mph 2 mph 67% 0.000 in 0.00 W/m2
19:19 50.0 °F 40.0 °F 30.3 in NE 2 mph 2 mph 68% 0.000 in 0.00 W/m2
19:24 50.0 °F 40.0 °F 30.3 in NE 2 mph 2 mph 68% 0.000 in 0.00 W/m2
19:29 50.0 °F 40.0 °F 30.3 in NE 1 mph 1 mph 69% 0.000 in 0.00 W/m2
19:34 49.0 °F 40.0 °F 30.3 in NE 1 mph 1 mph 69% 0.000 in 0.00 W/m2
19:39 49.0 °F 39.0 °F 30.3 in NE 1 mph 1 mph 69% 0.000 in 0.00 W/m2
19:44 49.0 °F 39.0 °F 30.3 in NE 1 mph 2 mph 69% 0.000 in 0.00 W/m2
19:49 49.0 °F 39.0 °F 30.3 in NE 1 mph 2 mph 70% 0.000 in 0.00 W/m2
19:54 48.0 °F 39.0 °F 30.3 in NNE 3 mph 3 mph 70% 0.000 in 0.00 W/m2
19:59 48.0 °F 39.0 °F 30.3 in North 4 mph 4 mph 70% 0.000 in 0.00 W/m2
20:04 48.0 °F 39.0 °F 30.3 in North 2 mph 2 mph 70% 0.000 in 0.00 W/m2
20:09 48.0 °F 38.0 °F 30.3 in North 2 mph 2 mph 70% 0.000 in 0.00 W/m2
20:14 48.0 °F 39.0 °F 30.3 in North 2 mph 2 mph 71% 0.000 in 0.00 W/m2
20:19 48.0 °F 39.0 °F 30.3 in North 1 mph 1 mph 71% 0.000 in 0.00 W/m2
20:24 47.0 °F 38.0 °F 30.3 in North 2 mph 2 mph 71% 0.000 in 0.00 W/m2
20:29 47.0 °F 38.0 °F 30.3 in North 1 mph 2 mph 71% 0.000 in 0.00 W/m2
20:34 47.0 °F 38.0 °F 30.3 in Calm     70% 0.000 in 0.00 W/m2
20:39 47.0 °F 38.0 °F 30.3 in Calm     70% 0.000 in 0.00 W/m2
20:44 47.0 °F 37.0 °F 30.3 in North 1 mph 1 mph 70% 0.000 in 0.00 W/m2
20:49 46.0 °F 38.0 °F 30.3 in North 1 mph 1 mph 71% 0.000 in 0.00 W/m2
20:54 46.0 °F 37.0 °F 30.3 in North 1 mph 1 mph 71% 0.000 in 0.00 W/m2
20:59 46.0 °F 37.0 °F 30.3 in North 2 mph 2 mph 71% 0.000 in 0.00 W/m2
21:04 46.0 °F 37.0 °F 30.3 in Calm     71% 0.000 in 0.00 W/m2
21:09 46.0 °F 37.0 °F 30.3 in Calm     71% 0.000 in 0.00 W/m2
21:14 45.0 °F 36.0 °F 30.3 in Calm     71% 0.000 in 0.00 W/m2
21:19 45.0 °F 36.0 °F 30.3 in Calm     71% 0.000 in 0.00 W/m2
21:24 45.0 °F 36.0 °F 30.3 in Calm     71% 0.000 in 0.00 W/m2
21:29 45.0 °F 36.0 °F 30.3 in North 2 mph 2 mph 72% 0.000 in 0.00 W/m2
21:34 44.0 °F 36.0 °F 30.3 in North 2 mph 2 mph 72% 0.000 in 0.00 W/m2
21:39 44.0 °F 36.0 °F 30.3 in North 2 mph 2 mph 72% 0.000 in 0.00 W/m2
21:44 44.0 °F 36.0 °F 30.3 in North 2 mph 2 mph 73% 0.000 in 0.00 W/m2
21:49 44.0 °F 36.0 °F 30.3 in North 1 mph 2 mph 73% 0.000 in 0.00 W/m2
21:54 44.0 °F 36.0 °F 30.3 in North 1 mph 1 mph 73% 0.000 in 0.00 W/m2
21:59 44.0 °F 36.0 °F 30.3 in North 2 mph 2 mph 74% 0.000 in 0.00 W/m2
22:04 43.0 °F 36.0 °F 30.3 in North 2 mph 2 mph 74% 0.000 in 0.00 W/m2
22:09 43.0 °F 36.0 °F 30.3 in North 2 mph 2 mph 74% 0.000 in 0.00 W/m2
22:14 43.0 °F 36.0 °F 30.3 in North 3 mph 3 mph 74% 0.000 in 0.00 W/m2
22:19 43.0 °F 35.0 °F 30.3 in North 2 mph 3 mph 73% 0.000 in 0.00 W/m2
22:24 44.0 °F 35.0 °F 30.3 in North 2 mph 2 mph 73% 0.000 in 0.00 W/m2
22:29 44.0 °F 36.0 °F 30.3 in North 4 mph 4 mph 73% 0.000 in 0.00 W/m2
22:34 44.0 °F 36.0 °F 30.3 in NNE 4 mph 4 mph 73% 0.000 in 0.00 W/m2
22:39 44.0 °F 36.0 °F 30.3 in NE 4 mph 4 mph 72% 0.000 in 0.00 W/m2
22:44 44.0 °F 35.0 °F 30.4 in NE 4 mph 4 mph 70% 0.000 in 0.00 W/m2
22:49 45.0 °F 35.0 °F 30.4 in NE 5 mph 5 mph 69% 0.000 in 0.00 W/m2
22:54 45.0 °F 35.0 °F 30.4 in NE 4 mph 5 mph 68% 0.000 in 0.00 W/m2
22:59 45.0 °F 35.0 °F 30.4 in NE 5 mph 6 mph 67% 0.000 in 0.00 W/m2
23:04 46.0 °F 35.0 °F 30.4 in NE 5 mph 6 mph 67% 0.000 in 0.00 W/m2
23:09 46.0 °F 35.0 °F 30.3 in NE 3 mph 4 mph 66% 0.000 in 0.00 W/m2
23:14 46.0 °F 35.0 °F 30.4 in NE 4 mph 6 mph 66% 0.000 in 0.00 W/m2
23:19 46.0 °F 35.0 °F 30.4 in NE 4 mph 4 mph 65% 0.000 in 0.00 W/m2
23:24 46.0 °F 35.0 °F 30.4 in ENE 5 mph 5 mph 64% 0.000 in 0.00 W/m2
23:29 46.0 °F 35.0 °F 30.4 in ENE 4 mph 5 mph 64% 0.000 in 0.00 W/m2
23:34 46.0 °F 35.0 °F 30.3 in NE 5 mph 5 mph 64% 0.000 in 0.00 W/m2
23:39 46.0 °F 35.0 °F 30.3 in ENE 5 mph 6 mph 64% 0.000 in 0.00 W/m2
23:44 46.0 °F 34.0 °F 30.3 in NE 4 mph 6 mph 63% 0.000 in 0.00 W/m2
23:49 46.0 °F 34.0 °F 30.3 in NE 3 mph 3 mph 63% 0.000 in 0.00 W/m2
23:54 46.0 °F 34.0 °F 30.3 in ENE 4 mph 4 mph 63% 0.000 in 0.00 W/m2
23:59 46.0 °F 34.0 °F 30.3 in East 3 mph 4 mph 63% 0.000 in 0.00 W/m2
Villages of Bridgestone, Spring, TX USA
Compliments of Weather Underground - 4 mb